Página principal
METAR-TAF:

METAR-TAF

Aeroportos :

Aeroporto Internacional do Bahrain

Bahrein, Bahrein

latitude: 26-16N, longitude: 050-39E, altura: 2 m

Observação actual do tempo

O boletim foi feito há 32 minutos, às 09:00 UTC
Vento 5 kt de es-nordeste, variando entre norte e sudeste
Temperatura 35°C
Humidade 34%
Pressão 1006 hPa
Visibilidade 10 km ou mais
sem nuvens abaixo de 1500 metros e sem cumulonimbus

METAR: OBBI 270900Z 06005KT 350V140 CAVOK 35/17 Q1006 NOSIG

Hora: 12:32 (09:32 UTC)

Previsão

O boletim foi feito há 4 horas e 32 minutos, às 05:00 UTC
Previsão válida de 27 às 06 UTC a 28 às 12 UTC
Vento 8 kt de norte
Visibilidade 10 km ou mais
sem nuvens abaixo de 1500 metros e sem cumulonimbus

TAF: OBBI 270500Z 2706/2812 36008KT CAVOK

Observações e previsões do tempo de mais de 4000 aeroportos (mensagens METAR e TAF).

As estações disponíveis são os pontos amarelos e vermelhos sobre o mapa.

Mova o rato sobre o mapa para ver o nome da estação.

Depois clique no ponto para visualizar as observações e previsões meteorológicas.

Para alterar o mapa : clique nos botões verdes com uma cruz preta para aumentar o zoom; no botão verde com uma pitada de zoom; ou nas setas verdes para mapas adjacentes.


METAR-TAF: